Time;durP1;ratioP1;P1;durP2;ratioP2;P2;SDS_P1;SDS_P2;PMS_P1;PMS_P2;Temp;Humidity;BMP_temperature;BMP_pressure;BME280_temperature;BME280_humidity;BME280_pressure;Samples;Min_cycle;Max_cycle;Signal;HPM_P1;HPM_P2
2023/09/07 00:00:24;;;;;;;10.57;9.45;;;;;;;18.64;99.45;101699.16;5045870;28;20495;-69
2023/09/07 00:02:50;;;;;;;10.77;9.70;;;;;;;18.48;100.00;101704.81;5051291;28;20028;-69
2023/09/07 00:05:15;;;;;;;11.82;9.93;;;;;;;18.54;100.00;101693.56;5042545;28;20020;-70
2023/09/07 00:07:40;;;;;;;10.52;9.52;;;;;;;18.46;100.00;101693.25;5043027;28;20490;-69
2023/09/07 00:10:06;;;;;;;10.82;9.23;;;;;;;18.31;100.00;101691.63;5055225;28;20434;-69
2023/09/07 00:12:31;;;;;;;11.00;9.82;;;;;;;18.28;100.00;101700.81;5059342;28;20035;-69
2023/09/07 00:14:58;;;;;;;11.75;10.55;;;;;;;18.27;100.00;101698.22;5054203;28;20033;-69
2023/09/07 00:17:24;;;;;;;12.48;10.38;;;;;;;18.24;100.00;101688.50;5051260;28;20024;-69
2023/09/07 00:19:50;;;;;;;11.23;10.13;;;;;;;18.23;100.00;101692.19;5052039;28;20076;-69
2023/09/07 00:22:16;;;;;;;11.13;9.57;;;;;;;18.29;100.00;101697.13;5054193;28;20060;-69
2023/09/07 00:24:42;;;;;;;11.15;10.05;;;;;;;18.20;100.00;101696.91;5061802;28;20032;-69
2023/09/07 00:27:08;;;;;;;11.00;9.82;;;;;;;18.08;100.00;101694.09;5048735;28;20150;-69
2023/09/07 00:29:36;;;;;;;12.13;10.93;;;;;;;18.07;100.00;101692.38;5057585;28;20325;-69
2023/09/07 00:32:02;;;;;;;12.63;11.20;;;;;;;18.01;100.00;101694.63;5052364;28;20036;-69
2023/09/07 00:34:27;;;;;;;12.10;10.90;;;;;;;17.97;100.00;101693.09;5049348;28;20433;-68
2023/09/07 00:36:52;;;;;;;13.38;12.02;;;;;;;17.90;100.00;101685.44;5056490;28;20024;-68
2023/09/07 00:39:18;;;;;;;12.23;10.40;;;;;;;17.78;100.00;101675.50;5059041;28;20583;-69
2023/09/07 00:41:43;;;;;;;12.45;11.20;;;;;;;17.82;100.00;101679.72;5053786;28;20027;-68
2023/09/07 00:44:08;;;;;;;13.82;11.40;;;;;;;17.82;100.00;101685.09;5050957;28;20573;-69
2023/09/07 00:46:34;;;;;;;14.13;11.95;;;;;;;17.81;100.00;101677.16;5054000;28;20236;-68
2023/09/07 00:49:00;;;;;;;11.93;10.57;;;;;;;17.82;100.00;101673.47;5052615;28;20244;-68
2023/09/07 00:51:26;;;;;;;13.13;11.40;;;;;;;17.85;100.00;101679.53;5061079;28;20063;-68
2023/09/07 00:53:53;;;;;;;11.95;10.75;;;;;;;17.97;100.00;101674.25;5045762;28;20044;-68
2023/09/07 00:56:19;;;;;;;12.82;11.25;;;;;;;17.90;100.00;101681.91;5055510;28;20036;-68
2023/09/07 00:58:47;;;;;;;13.52;10.95;;;;;;;17.93;100.00;101684.34;5059021;28;20017;-68
2023/09/07 01:01:13;;;;;;;14.02;12.57;;;;;;;17.92;100.00;101683.50;5057435;28;20070;-68
2023/09/07 01:03:38;;;;;;;12.95;11.60;;;;;;;17.90;100.00;101682.75;5053461;28;20020;-68
2023/09/07 01:06:17;;;;;;;13.35;11.70;;;;;;;17.93;100.00;101689.75;5064181;28;20215;-69
2023/09/07 01:08:46;;;;;;;13.10;11.80;;;;;;;17.89;100.00;101689.13;5064887;28;20029;-68
2023/09/07 01:11:22;;;;;;;13.75;12.07;;;;;;;17.83;100.00;101677.88;5058807;28;20127;-69
2023/09/07 01:13:48;;;;;;;13.75;12.05;;;;;;;17.77;100.00;101684.56;5056164;28;20035;-68
2023/09/07 01:16:15;;;;;;;13.05;11.57;;;;;;;17.73;100.00;101677.63;5051669;28;20020;-68
2023/09/07 01:18:41;;;;;;;12.98;11.63;;;;;;;17.72;100.00;101681.25;5066851;28;20024;-70
2023/09/07 01:21:08;;;;;;;13.52;12.13;;;;;;;17.71;100.00;101681.38;5062387;28;20055;-70
2023/09/07 01:23:39;;;;;;;13.45;12.15;;;;;;;17.68;100.00;101680.63;5057746;28;20035;-68
2023/09/07 01:26:08;;;;;;;15.00;11.63;;;;;;;17.68;100.00;101674.34;5053132;28;20820;-69
2023/09/07 01:28:33;;;;;;;13.75;12.45;;;;;;;17.67;100.00;101680.72;5061612;28;20035;-69
2023/09/07 01:30:59;;;;;;;13.27;11.90;;;;;;;17.64;100.00;101675.53;5060348;28;20081;-69
2023/09/07 01:33:24;;;;;;;13.18;11.38;;;;;;;17.55;100.00;101671.63;5057789;28;20060;-68
2023/09/07 01:35:50;;;;;;;12.13;10.93;;;;;;;17.54;100.00;101674.44;5050160;28;20021;-69
2023/09/07 01:38:15;;;;;;;12.63;11.40;;;;;;;17.52;100.00;101665.63;5059991;28;20121;-69
2023/09/07 01:40:40;;;;;;;13.30;11.90;;;;;;;17.51;100.00;101663.88;5064149;28;20554;-69
2023/09/07 01:43:06;;;;;;;13.07;11.77;;;;;;;17.48;100.00;101664.97;5064158;28;20020;-70
2023/09/07 01:45:31;;;;;;;13.68;12.27;;;;;;;17.36;100.00;101653.19;5047816;28;20059;-70
2023/09/07 01:47:59;;;;;;;15.52;11.85;;;;;;;17.37;100.00;101662.09;5061781;28;20294;-69
2023/09/07 01:50:27;;;;;;;14.00;12.60;;;;;;;17.37;100.00;101662.97;5052242;28;20356;-70
2023/09/07 01:52:52;;;;;;;14.20;12.38;;;;;;;17.29;100.00;101662.59;5064906;28;20309;-70
2023/09/07 01:55:18;;;;;;;15.18;12.70;;;;;;;17.27;100.00;101669.94;5061269;28;20020;-70
2023/09/07 01:57:43;;;;;;;13.38;12.13;;;;;;;17.24;100.00;101655.81;5060638;28;20032;-69
2023/09/07 02:00:10;;;;;;;13.93;12.45;;;;;;;17.17;100.00;101664.28;5062362;28;20036;-70
2023/09/07 02:02:36;;;;;;;14.80;13.35;;;;;;;17.17;100.00;101663.41;5061834;28;20063;-70
2023/09/07 02:05:01;;;;;;;14.27;12.32;;;;;;;17.18;100.00;101663.34;5056788;28;20458;-70
2023/09/07 02:07:27;;;;;;;14.43;12.93;;;;;;;17.12;100.00;101657.47;5059137;28;20403;-70
2023/09/07 02:09:52;;;;;;;14.35;12.98;;;;;;;17.03;100.00;101658.94;5058919;28;20032;-69
2023/09/07 02:12:18;;;;;;;17.10;13.93;;;;;;;17.05;100.00;101669.59;5056258;28;20031;-70
2023/09/07 02:14:43;;;;;;;15.00;13.60;;;;;;;17.08;100.00;101669.41;5061226;28;20034;-70
2023/09/07 02:17:08;;;;;;;14.57;12.77;;;;;;;17.01;100.00;101668.91;5060366;28;20133;-69
2023/09/07 02:19:35;;;;;;;19.55;14.48;;;;;;;16.93;100.00;101672.13;5056960;28;20476;-70
2023/09/07 02:22:00;;;;;;;15.10;13.60;;;;;;;16.90;100.00;101661.56;5056665;28;20032;-68
2023/09/07 02:24:26;;;;;;;14.77;13.18;;;;;;;16.95;100.00;101665.78;5054028;28;20025;-69
2023/09/07 02:26:51;;;;;;;14.60;13.13;;;;;;;16.89;100.00;101667.06;5055130;28;20112;-69
2023/09/07 02:29:17;;;;;;;15.25;13.60;;;;;;;16.86;100.00;101667.25;5060185;28;20190;-68
2023/09/07 02:31:42;;;;;;;16.42;13.93;;;;;;;16.82;100.00;101663.03;5058153;28;20139;-68
2023/09/07 02:34:07;;;;;;;14.88;13.38;;;;;;;16.81;100.00;101656.78;5047408;28;20518;-68
2023/09/07 02:36:34;;;;;;;15.68;14.00;;;;;;;16.74;100.00;101665.34;5052123;28;20032;-68
2023/09/07 02:39:00;;;;;;;15.07;12.98;;;;;;;16.72;100.00;101665.41;5051043;28;20033;-69
2023/09/07 02:41:25;;;;;;;14.70;13.20;;;;;;;16.72;100.00;101669.91;5055165;28;20032;-69
2023/09/07 02:43:51;;;;;;;14.60;13.20;;;;;;;16.74;100.00;101659.97;5053213;28;20487;-69
2023/09/07 02:46:16;;;;;;;15.73;14.13;;;;;;;16.68;100.00;101669.25;5051994;28;20036;-69
2023/09/07 02:48:42;;;;;;;16.23;14.63;;;;;;;16.64;100.00;101665.03;5051680;28;20033;-68
2023/09/07 02:51:07;;;;;;;16.38;14.77;;;;;;;16.65;100.00;101666.75;5057759;28;20110;-69
2023/09/07 02:53:32;;;;;;;14.98;13.48;;;;;;;16.64;100.00;101665.03;5055786;28;20479;-69
2023/09/07 02:55:58;;;;;;;15.80;14.30;;;;;;;16.55;100.00;101665.59;5053447;28;20507;-69
2023/09/07 02:58:24;;;;;;;15.57;14.05;;;;;;;16.50;100.00;101667.72;5060219;28;20113;-69
2023/09/07 03:00:49;;;;;;;15.73;14.23;;;;;;;16.46;100.00;101664.34;5061498;28;20036;-69
2023/09/07 03:03:18;;;;;;;16.17;14.50;;;;;;;16.51;100.00;101669.44;5060705;28;20025;-69
2023/09/07 03:05:44;;;;;;;15.32;13.82;;;;;;;16.44;100.00;101659.06;5050566;28;20101;-69
2023/09/07 03:08:10;;;;;;;15.38;13.98;;;;;;;16.45;100.00;101659.94;5051060;28;20217;-69
2023/09/07 03:10:39;;;;;;;15.48;14.00;;;;;;;16.41;100.00;101659.25;5055902;28;20078;-69
2023/09/07 03:13:05;;;;;;;15.30;13.82;;;;;;;16.39;100.00;101661.19;5054375;28;20025;-67
2023/09/07 03:15:30;;;;;;;15.35;13.85;;;;;;;16.35;100.00;101658.81;5055156;28;20412;-68
2023/09/07 03:17:56;;;;;;;15.77;14.27;;;;;;;16.37;100.00;101657.72;5044091;28;20058;-68
2023/09/07 03:20:21;;;;;;;16.70;15.10;;;;;;;16.36;100.00;101658.69;5046087;28;20032;-68
2023/09/07 03:22:47;;;;;;;16.42;14.73;;;;;;;16.37;100.00;101665.78;5043525;28;20039;-68
2023/09/07 03:25:13;;;;;;;17.08;15.38;;;;;;;16.32;100.00;101664.34;5045670;28;20020;-69
2023/09/07 03:27:39;;;;;;;18.35;15.98;;;;;;;16.25;100.00;101663.84;5057381;28;20025;-68
2023/09/07 03:30:05;;;;;;;18.02;16.15;;;;;;;16.13;100.00;101662.78;5051977;28;20280;-69
2023/09/07 03:32:34;;;;;;;15.52;14.05;;;;;;;16.11;100.00;101651.28;5046709;28;20060;-68
2023/09/07 03:35:03;;;;;;;16.05;14.38;;;;;;;16.24;100.00;101662.13;5048221;28;20581;-69
2023/09/07 03:37:28;;;;;;;16.85;15.02;;;;;;;16.07;100.00;101652.44;5045276;28;20045;-69
2023/09/07 03:39:55;;;;;;;15.70;14.23;;;;;;;16.17;100.00;101658.09;5039657;28;20028;-68
2023/09/07 03:42:20;;;;;;;15.25;13.70;;;;;;;16.15;100.00;101657.34;5047292;28;20031;-69
2023/09/07 03:44:45;;;;;;;15.77;14.25;;;;;;;16.10;100.00;101659.44;5040930;28;20542;-69
2023/09/07 03:47:14;;;;;;;16.73;15.02;;;;;;;16.12;100.00;101671.81;5044767;28;21679;-68
2023/09/07 03:49:39;;;;;;;16.08;14.40;;;;;;;16.07;100.00;101660.47;5041802;28;20794;-69
2023/09/07 03:52:05;;;;;;;14.80;13.50;;;;;;;16.05;100.00;101666.91;5048017;28;20036;-69
2023/09/07 03:54:31;;;;;;;14.75;13.35;;;;;;;16.05;100.00;101672.25;5042533;28;20033;-68
2023/09/07 03:56:57;;;;;;;15.70;14.20;;;;;;;16.03;100.00;101664.31;5050602;28;20090;-68
2023/09/07 03:59:22;;;;;;;14.88;13.48;;;;;;;16.02;100.00;101661.72;5060657;28;20028;-69
2023/09/07 04:01:48;;;;;;;15.52;13.95;;;;;;;15.99;100.00;101669.97;5048390;28;20487;-69
2023/09/07 04:04:13;;;;;;;15.93;14.10;;;;;;;15.98;100.00;101673.63;5043266;28;20029;-69
2023/09/07 04:06:39;;;;;;;15.80;14.27;;;;;;;15.94;100.00;101665.75;5049648;28;20078;-69
2023/09/07 04:09:04;;;;;;;15.55;14.05;;;;;;;15.84;100.00;101671.75;5048122;28;20048;-68
2023/09/07 04:11:30;;;;;;;15.07;13.45;;;;;;;15.84;100.00;101669.94;5050646;28;20116;-68
2023/09/07 04:13:55;;;;;;;14.35;12.93;;;;;;;15.77;100.00;101673.94;5040933;28;20029;-69
2023/09/07 04:16:21;;;;;;;15.77;14.18;;;;;;;15.71;100.00;101662.69;5042332;28;20029;-69
2023/09/07 04:18:46;;;;;;;14.93;13.48;;;;;;;15.77;100.00;101668.56;5041320;28;20821;-69
2023/09/07 04:21:12;;;;;;;14.95;13.45;;;;;;;15.75;100.00;101664.25;5038613;28;20588;-69
2023/09/07 04:23:38;;;;;;;14.80;13.25;;;;;;;15.71;100.00;101665.38;5043353;28;20032;-69
2023/09/07 04:26:08;;;;;;;14.25;12.85;;;;;;;15.69;100.00;101670.84;5044799;28;20389;-69
2023/09/07 04:28:33;;;;;;;14.80;13.25;;;;;;;15.65;100.00;101658.56;5052983;28;20025;-68
2023/09/07 04:30:59;;;;;;;14.77;13.27;;;;;;;15.64;100.00;101668.44;5055348;28;20032;-68
2023/09/07 04:33:24;;;;;;;14.05;12.70;;;;;;;15.57;100.00;101667.03;5041908;28;20047;-68
2023/09/07 04:35:49;;;;;;;13.68;12.25;;;;;;;15.45;100.00;101659.69;5043700;28;20025;-68
2023/09/07 04:38:18;;;;;;;14.57;12.07;;;;;;;15.42;100.00;101674.16;5044909;28;20079;-68
2023/09/07 04:40:44;;;;;;;13.38;11.85;;;;;;;15.37;100.00;101675.38;5047674;28;20037;-68
2023/09/07 04:43:09;;;;;;;13.25;11.88;;;;;;;15.36;100.00;101666.47;5038257;28;20065;-68
2023/09/07 04:45:34;;;;;;;13.15;11.55;;;;;;;15.34;100.00;101664.81;5044186;28;20032;-69
2023/09/07 04:48:00;;;;;;;12.98;11.77;;;;;;;15.33;100.00;101666.63;5041682;28;20028;-69
2023/09/07 04:50:25;;;;;;;14.95;11.88;;;;;;;15.30;100.00;101665.94;5040324;28;20033;-69
2023/09/07 04:52:50;;;;;;;13.32;12.13;;;;;;;15.28;100.00;101670.53;5042988;28;20020;-69
2023/09/07 04:55:16;;;;;;;13.88;12.45;;;;;;;15.28;100.00;101668.72;5047571;28;20033;-70
2023/09/07 04:57:41;;;;;;;12.85;11.63;;;;;;;15.26;100.00;101673.31;5055225;28;20151;-69
2023/09/07 05:00:09;;;;;;;15.25;13.57;;;;;;;15.24;100.00;101671.66;5056568;28;20064;-69
2023/09/07 05:02:38;;;;;;;14.50;13.00;;;;;;;15.21;100.00;101670.00;5042536;28;20104;-69
2023/09/07 05:05:04;;;;;;;13.13;11.93;;;;;;;15.19;100.00;101670.09;5040816;28;20046;-69
2023/09/07 05:07:29;;;;;;;15.00;13.43;;;;;;;15.18;100.00;101670.22;5048581;28;20459;-69
2023/09/07 05:09:55;;;;;;;15.15;13.55;;;;;;;15.12;100.00;101668.72;5045525;28;20563;-69
2023/09/07 05:12:20;;;;;;;14.35;12.85;;;;;;;15.14;100.00;101674.03;5039470;28;20069;-68
2023/09/07 05:14:49;;;;;;;14.20;12.70;;;;;;;15.06;100.00;101668.22;5040206;28;20287;-68
2023/09/07 05:17:14;;;;;;;13.57;12.10;;;;;;;15.06;100.00;101679.81;5046222;28;20490;-68
2023/09/07 05:19:39;;;;;;;16.80;14.93;;;;;;;15.01;100.00;101681.03;5045792;28;20028;-68
2023/09/07 05:22:05;;;;;;;20.92;17.08;;;;;;;14.98;100.00;101681.19;5048812;28;20335;-68
2023/09/07 05:24:30;;;;;;;20.00;17.85;;;;;;;14.97;100.00;101688.38;5044471;28;20049;-69
2023/09/07 05:26:56;;;;;;;19.58;16.45;;;;;;;15.03;100.00;101690.69;5042527;28;20136;-69
2023/09/07 05:29:22;;;;;;;18.98;15.40;;;;;;;15.02;100.00;101686.28;5051295;28;20033;-69
2023/09/07 05:31:48;;;;;;;19.67;16.02;;;;;;;15.08;100.00;101687.75;5048592;28;20060;-69
2023/09/07 05:34:13;;;;;;;18.63;15.05;;;;;;;15.06;100.00;101693.22;5046038;28;20632;-69
2023/09/07 05:36:38;;;;;;;17.05;14.65;;;;;;;15.09;100.00;101695.72;5039184;28;20594;-68
2023/09/07 05:39:04;;;;;;;17.75;15.00;;;;;;;15.07;100.00;101686.88;5050414;28;20033;-69
2023/09/07 05:41:29;;;;;;;14.90;13.30;;;;;;;15.06;100.00;101689.66;5048410;28;20028;-69
2023/09/07 05:43:55;;;;;;;14.85;12.93;;;;;;;15.14;100.00;101687.41;5052262;28;20599;-69
2023/09/07 05:46:20;;;;;;;15.43;13.93;;;;;;;15.12;100.00;101692.00;5050935;28;20086;-69
2023/09/07 05:48:49;;;;;;;15.65;14.13;;;;;;;15.14;100.00;101695.47;5046637;28;20064;-68
2023/09/07 05:51:14;;;;;;;17.95;15.50;;;;;;;15.24;100.00;101702.03;5054190;28;20025;-69
2023/09/07 05:53:39;;;;;;;15.80;14.15;;;;;;;15.25;100.00;101698.38;5051209;28;20080;-69
2023/09/07 05:56:05;;;;;;;16.88;14.82;;;;;;;15.33;100.00;101701.50;5053217;28;20036;-69
2023/09/07 05:58:30;;;;;;;14.38;12.98;;;;;;;15.34;100.00;101700.56;5053912;28;20033;-68
2023/09/07 06:00:55;;;;;;;14.75;13.20;;;;;;;15.42;100.00;101703.69;5056677;28;20490;-70
2023/09/07 06:03:21;;;;;;;15.07;13.52;;;;;;;15.56;100.00;101702.00;5057886;28;20032;-69
2023/09/07 06:05:46;;;;;;;14.27;12.88;;;;;;;15.78;100.00;101712.38;5052097;28;20024;-69
2023/09/07 06:08:12;;;;;;;14.13;12.68;;;;;;;16.09;100.00;101712.28;5059275;28;20040;-69
2023/09/07 06:10:38;;;;;;;14.43;13.02;;;;;;;16.42;100.00;101717.41;5051966;28;20025;-69
2023/09/07 06:13:03;;;;;;;13.80;12.43;;;;;;;16.73;100.00;101722.75;5059907;28;20388;-70
2023/09/07 06:15:29;;;;;;;13.50;12.10;;;;;;;17.01;100.00;101727.22;5059515;28;20040;-70
2023/09/07 06:17:55;;;;;;;13.80;12.43;;;;;;;17.27;100.00;101720.19;5056802;28;20081;-70
2023/09/07 06:20:20;;;;;;;13.27;11.98;;;;;;;17.60;100.00;101714.44;5052863;28;20040;-71
2023/09/07 06:22:46;;;;;;;12.93;11.50;;;;;;;17.74;100.00;101718.88;5054464;28;20112;-71
2023/09/07 06:25:12;;;;;;;13.55;11.88;;;;;;;17.94;100.00;101717.56;5049984;28;20029;-71
2023/09/07 06:27:37;;;;;;;12.75;11.40;;;;;;;18.11;100.00;101722.66;5054207;28;20042;-71
2023/09/07 06:30:05;;;;;;;12.55;11.35;;;;;;;18.38;100.00;101717.19;5065034;28;20102;-71
2023/09/07 06:32:30;;;;;;;14.02;11.13;;;;;;;18.62;99.40;101718.16;5050473;28;20025;-70
2023/09/07 06:34:56;;;;;;;11.30;10.20;;;;;;;18.75;97.94;101726.25;5056060;28;20028;-70
2023/09/07 06:37:24;;;;;;;12.60;10.88;;;;;;;18.96;96.57;101733.78;5055750;28;20152;-70
2023/09/07 06:39:49;;;;;;;10.77;9.77;;;;;;;19.15;95.60;101723.41;5057174;28;20037;-70
2023/09/07 06:42:15;;;;;;;13.40;10.13;;;;;;;19.43;94.11;101730.31;5053378;28;20036;-70
2023/09/07 06:44:41;;;;;;;11.90;9.85;;;;;;;19.62;92.43;101721.75;5053121;28;20025;-69
2023/09/07 06:47:07;;;;;;;12.30;9.98;;;;;;;19.65;92.35;101726.94;5051652;28;20028;-69
2023/09/07 06:49:32;;;;;;;9.93;8.93;;;;;;;19.94;91.84;101738.22;5061439;28;20516;-69
2023/09/07 06:51:57;;;;;;;9.85;8.95;;;;;;;20.08;89.78;101729.06;5059376;28;20044;-67
2023/09/07 06:54:23;;;;;;;10.82;9.13;;;;;;;20.35;88.75;101731.44;5054635;28;20033;-67
2023/09/07 06:56:48;;;;;;;10.88;8.90;;;;;;;20.48;87.49;101736.75;5060238;28;20027;-68
2023/09/07 06:59:14;;;;;;;11.38;8.88;;;;;;;20.84;85.61;101736.56;5066401;28;20020;-69
2023/09/07 07:01:39;;;;;;;9.75;8.75;;;;;;;20.95;85.47;101737.56;5046571;28;20059;-68
2023/09/07 07:04:05;;;;;;;9.82;8.82;;;;;;;21.19;84.35;101740.13;5058764;28;20035;-68
2023/09/07 07:06:30;;;;;;;10.10;9.07;;;;;;;21.44;81.63;101731.72;5054738;28;20024;-69
2023/09/07 07:08:56;;;;;;;13.20;8.70;;;;;;;21.83;79.16;101732.13;5053296;28;20047;-69
2023/09/07 07:11:21;;;;;;;9.13;8.23;;;;;;;22.08;77.48;101736.31;5051415;28;20021;-68
2023/09/07 07:13:46;;;;;;;8.93;8.13;;;;;;;22.32;75.65;101736.06;5044250;28;20072;-71
2023/09/07 07:16:12;;;;;;;8.60;7.70;;;;;;;22.49;75.45;101742.75;5048255;28;20124;-70
2023/09/07 07:18:39;;;;;;;8.45;7.57;;;;;;;22.66;73.66;101742.16;5047233;28;20024;-71
2023/09/07 07:21:04;;;;;;;8.27;7.38;;;;;;;23.07;71.79;101743.94;5058891;28;20048;-70
2023/09/07 07:23:30;;;;;;;10.38;8.02;;;;;;;23.31;72.33;101746.28;5044500;28;20627;-71
2023/09/07 07:25:56;;;;;;;7.72;6.93;;;;;;;23.45;69.90;101741.44;5058613;28;20102;-70
2023/09/07 07:28:21;;;;;;;7.13;6.43;;;;;;;23.85;70.08;101741.38;5053609;28;20025;-70
2023/09/07 07:30:48;;;;;;;7.93;6.85;;;;;;;24.22;67.95;101744.22;5051489;28;20104;-71
2023/09/07 07:33:13;;;;;;;7.30;6.10;;;;;;;24.78;66.47;101739.81;5059126;28;20028;-70
2023/09/07 07:35:38;;;;;;;9.18;6.60;;;;;;;25.00;63.29;101741.34;5063578;28;20055;-70
2023/09/07 07:38:04;;;;;;;7.35;6.60;;;;;;;25.21;62.79;101744.69;5050083;28;20052;-70
2023/09/07 07:40:30;;;;;;;8.88;6.00;;;;;;;25.32;61.04;101751.78;5049658;28;20028;-71
2023/09/07 07:42:56;;;;;;;6.43;5.82;;;;;;;25.46;60.52;101745.84;5055907;28;20025;-70
2023/09/07 07:45:21;;;;;;;6.97;6.10;;;;;;;25.89;60.48;101743.41;5047565;28;20029;-71
2023/09/07 07:47:49;;;;;;;7.75;5.40;;;;;;;26.32;58.86;101742.56;5042518;28;20033;-70
2023/09/07 07:50:15;;;;;;;6.45;5.80;;;;;;;26.63;56.54;101737.53;5051535;28;20051;-71
2023/09/07 07:52:40;;;;;;;6.03;5.18;;;;;;;26.85;56.41;101744.31;5051027;28;20048;-70
2023/09/07 07:55:06;;;;;;;5.82;5.28;;;;;;;26.91;54.11;101742.78;5054908;28;20437;-70
2023/09/07 07:57:32;;;;;;;7.68;5.50;;;;;;;26.91;53.77;101742.78;5058065;28;20028;-71
2023/09/07 07:59:58;;;;;;;12.18;5.32;;;;;;;27.23;52.87;101742.97;5047346;28;20032;-70
2023/09/07 08:02:23;;;;;;;7.57;5.07;;;;;;;27.80;51.75;101743.13;5044038;28;20033;-70
2023/09/07 08:04:49;;;;;;;5.50;5.00;;;;;;;27.90;50.03;101731.19;5046309;28;20048;-69
2023/09/07 08:07:14;;;;;;;8.52;5.70;;;;;;;28.07;48.98;101745.72;5042787;28;20028;-70
2023/09/07 08:09:39;;;;;;;5.97;5.20;;;;;;;28.28;48.21;101732.38;5043568;28;20027;-69
2023/09/07 08:12:06;;;;;;;8.38;4.97;;;;;;;28.49;48.31;101734.59;5042893;28;20865;-69
2023/09/07 08:14:31;;;;;;;8.55;5.00;;;;;;;28.81;48.04;101728.19;5050510;28;20050;-70
2023/09/07 08:16:57;;;;;;;5.57;4.97;;;;;;;29.27;46.35;101728.34;5052069;28;20547;-69
2023/09/07 08:19:24;;;;;;;5.15;4.57;;;;;;;29.73;45.30;101726.56;5051453;28;20491;-69
2023/09/07 08:21:49;;;;;;;5.32;4.78;;;;;;;29.86;44.22;101717.72;5058796;28;20036;-70
2023/09/07 08:24:15;;;;;;;5.25;4.68;;;;;;;30.12;43.49;101724.69;5052780;28;20141;-69
2023/09/07 08:26:41;;;;;;;6.55;4.70;;;;;;;30.20;43.08;101719.16;5047390;28;20487;-69
2023/09/07 08:29:08;;;;;;;4.78;4.38;;;;;;;30.78;42.34;101713.94;5046227;28;20073;-70
2023/09/07 08:31:38;;;;;;;5.53;4.35;;;;;;;31.06;42.35;101717.72;5056465;28;20046;-70
2023/09/07 08:34:06;;;;;;;5.00;4.50;;;;;;;31.48;41.39;101710.63;5061626;28;20016;-70
2023/09/07 08:36:34;;;;;;;6.20;4.78;;;;;;;31.78;39.82;101707.78;5061165;28;20536;-70
2023/09/07 08:39:05;;;;;;;5.80;4.53;;;;;;;32.15;39.52;101713.00;5042991;28;20245;-70
2023/09/07 08:41:32;;;;;;;5.97;4.43;;;;;;;32.28;39.12;101711.41;5050974;28;20506;-70
2023/09/07 08:43:57;;;;;;;6.95;4.35;;;;;;;32.57;37.21;101715.88;5054699;28;20115;-70
2023/09/07 08:46:23;;;;;;;5.82;4.13;;;;;;;33.05;36.79;101714.03;5042728;28;20383;-71
2023/09/07 08:48:50;;;;;;;4.63;4.22;;;;;;;33.56;35.54;101715.50;5042574;28;20067;-70
2023/09/07 08:51:18;;;;;;;5.30;4.00;;;;;;;33.70;35.63;101720.84;5048040;28;20031;-70
2023/09/07 08:53:46;;;;;;;6.65;4.18;;;;;;;33.55;34.77;101713.81;5046840;28;20025;-71
2023/09/07 08:56:14;;;;;;;5.20;3.65;;;;;;;33.64;35.39;101710.63;5043062;28;20044;-70
2023/09/07 08:58:40;;;;;;;5.78;3.78;;;;;;;33.69;35.24;101702.59;5052981;28;20222;-70
2023/09/07 09:01:05;;;;;;;5.20;4.13;;;;;;;34.27;34.63;101699.22;5042425;28;20270;-70
2023/09/07 09:03:31;;;;;;;6.45;3.78;;;;;;;34.44;33.15;101702.38;5051925;28;20033;-68
2023/09/07 09:05:57;;;;;;;6.35;4.07;;;;;;;34.47;32.94;101701.97;5046385;28;20395;-70
2023/09/07 09:08:24;;;;;;;4.68;4.07;;;;;;;34.44;33.15;101694.09;5041954;28;20410;-70
2023/09/07 09:11:00;;;;;;;4.95;3.95;;;;;;;34.81;33.81;101694.44;5041496;28;20025;-71
2023/09/07 09:13:30;;;;;;;5.10;3.92;;;;;;;35.12;33.43;101689.06;5050886;28;20091;-71
2023/09/07 09:15:55;;;;;;;5.55;4.07;;;;;;;35.57;32.16;101699.25;5052768;28;20083;-69
2023/09/07 09:18:21;;;;;;;4.80;3.42;;;;;;;35.72;31.63;101691.47;5053302;28;20394;-70
2023/09/07 09:20:48;;;;;;;4.38;3.50;;;;;;;35.95;31.69;101701.94;5056297;28;20033;-70
2023/09/07 09:23:14;;;;;;;7.07;3.80;;;;;;;36.22;31.55;101702.59;5054760;28;20024;-70
2023/09/07 09:25:41;;;;;;;4.22;3.83;;;;;;;36.40;30.35;101699.00;5045497;28;20013;-71
2023/09/07 09:28:09;;;;;;;5.03;3.90;;;;;;;36.35;30.60;101696.06;5048792;28;20051;-71
2023/09/07 09:30:35;;;;;;;6.03;3.80;;;;;;;36.74;29.78;101696.72;5054354;28;20108;-70
2023/09/07 09:33:01;;;;;;;4.85;3.80;;;;;;;36.86;29.61;101698.50;5048975;28;20240;-69
2023/09/07 09:35:27;;;;;;;5.40;3.33;;;;;;;37.31;28.93;101700.09;5046287;28;20064;-70
2023/09/07 09:37:52;;;;;;;4.20;3.80;;;;;;;37.39;28.53;101697.88;5057821;28;20530;-70
2023/09/07 09:40:18;;;;;;;4.90;3.85;;;;;;;37.46;28.85;101696.91;5062591;28;20034;-72
2023/09/07 09:42:44;;;;;;;4.95;3.50;;;;;;;37.57;28.57;101696.94;5051730;28;20052;-70
2023/09/07 09:45:11;;;;;;;4.32;3.78;;;;;;;37.82;28.03;101691.22;5065526;28;20067;-70
2023/09/07 09:47:39;;;;;;;5.38;4.32;;;;;;;38.67;27.55;101681.63;5056248;28;20229;-71
2023/09/07 09:50:07;;;;;;;4.70;3.67;;;;;;;38.69;27.35;101684.13;5047866;28;20511;-71
2023/09/07 09:52:36;;;;;;;6.97;3.80;;;;;;;38.89;26.35;101684.59;5051518;28;20263;-71
2023/09/07 09:55:05;;;;;;;5.70;3.78;;;;;;;39.18;26.51;101679.06;5053081;28;20325;-71
2023/09/07 09:57:31;;;;;;;5.18;3.90;;;;;;;39.12;26.67;101678.09;5057070;28;20459;-71
2023/09/07 09:59:59;;;;;;;4.45;3.50;;;;;;;39.58;25.77;101681.78;5052722;28;20032;-70
2023/09/07 10:02:25;;;;;;;4.63;3.90;;;;;;;40.20;25.34;101683.69;5061362;28;20131;-70
2023/09/07 10:04:51;;;;;;;4.00;3.50;;;;;;;40.77;24.10;101681.47;5057405;28;20027;-70
2023/09/07 10:07:19;;;;;;;4.35;3.65;;;;;;;40.65;24.39;101677.94;5048404;28;20451;-70
2023/09/07 10:09:45;;;;;;;5.13;3.72;;;;;;;40.48;23.31;101677.97;5058357;28;20032;-70
2023/09/07 10:12:13;;;;;;;3.97;3.60;;;;;;;40.37;24.44;101678.91;5044643;28;20471;-70
2023/09/07 10:14:44;;;;;;;6.13;4.22;;;;;;;40.57;23.83;101679.25;5054127;28;20041;-70
2023/09/07 10:17:09;;;;;;;5.40;3.80;;;;;;;40.79;23.67;101678.41;5044918;28;20165;-70
2023/09/07 10:19:38;;;;;;;3.97;3.60;;;;;;;40.60;23.09;101668.69;5045303;28;20102;-70
2023/09/07 10:22:03;;;;;;;3.72;3.28;;;;;;;40.23;24.13;101677.59;5055234;28;20020;-69
2023/09/07 10:24:39;;;;;;;4.45;3.38;;;;;;;40.83;23.34;101676.78;5044897;28;20015;-70
2023/09/07 10:27:06;;;;;;;5.13;3.67;;;;;;;41.22;22.59;101682.28;5046904;28;20047;-71
2023/09/07 10:29:43;;;;;;;4.47;3.50;;;;;;;41.33;22.93;101675.69;5051022;28;20047;-70
2023/09/07 10:32:12;;;;;;;3.78;3.30;;;;;;;40.81;22.69;101670.63;5054939;28;20524;-69
2023/09/07 10:34:39;;;;;;;4.18;3.78;;;;;;;41.18;22.43;101667.16;5056954;28;20789;-71
2023/09/07 10:37:04;;;;;;;4.07;3.67;;;;;;;41.74;21.92;101667.72;5044776;28;20033;-71
2023/09/07 10:39:33;;;;;;;4.18;3.20;;;;;;;41.88;21.51;101660.59;5045080;28;20040;-70
2023/09/07 10:41:58;;;;;;;3.63;3.33;;;;;;;42.02;21.46;101664.63;5059714;28;20077;-71
2023/09/07 10:44:27;;;;;;;3.83;3.35;;;;;;;41.96;22.47;101657.28;5054457;28;20441;-71
2023/09/07 10:46:54;;;;;;;3.63;3.33;;;;;;;42.61;21.84;101648.75;5045010;28;20115;-69
2023/09/07 10:49:19;;;;;;;3.72;3.42;;;;;;;42.73;21.95;101655.00;5044543;28;20060;-70
2023/09/07 10:51:47;;;;;;;3.45;3.15;;;;;;;42.54;21.65;101647.03;5044954;28;20028;-70
2023/09/07 10:54:23;;;;;;;4.22;3.78;;;;;;;43.06;22.08;101653.72;5044504;28;20467;-69
2023/09/07 10:56:50;;;;;;;4.28;3.25;;;;;;;43.03;20.59;101643.88;5056013;28;20036;-70
2023/09/07 10:59:19;;;;;;;5.47;3.35;;;;;;;42.87;21.10;101644.97;5045415;28;20029;-68
2023/09/07 11:01:45;;;;;;;5.65;3.53;;;;;;;43.03;20.50;101643.88;5056741;28;20038;-69
2023/09/07 11:04:11;;;;;;;3.83;3.30;;;;;;;43.14;20.62;101643.91;5054785;28;20040;-69
2023/09/07 11:06:39;;;;;;;3.80;3.30;;;;;;;43.31;20.86;101640.88;5060855;28;20074;-70